Time;durP1;ratioP1;P1;durP2;ratioP2;P2;SDS_P1;SDS_P2;PMS_P1;PMS_P2;Temp;Humidity;BMP_temperature;BMP_pressure;BME280_temperature;BME280_humidity;BME280_pressure;Samples;Min_cycle;Max_cycle;Signal;HPM_P1;HPM_P2
2022/06/25 00:00:35;;;;;;;0.40;0.10;;;;;;;21.66;48.06;100205.80;104072;1277;138952;-70
2022/06/25 00:03:06;;;;;;;0.40;0.10;;;;;;;21.62;48.36;100205.88;104160;1277;109101;-70
2022/06/25 00:05:34;;;;;;;0.40;0.10;;;;;;;21.64;48.22;100205.81;103984;1277;138888;-71
2022/06/25 00:08:02;;;;;;;0.40;0.10;;;;;;;21.60;48.51;100206.04;104086;1277;95095;-70
2022/06/25 00:10:30;;;;;;;0.40;0.10;;;;;;;21.58;48.71;100207.83;104143;1277;109238;-71
2022/06/25 00:12:58;;;;;;;0.40;0.10;;;;;;;21.54;48.65;100206.86;104023;1277;138689;-71
2022/06/25 00:15:26;;;;;;;0.40;0.10;;;;;;;21.46;48.89;100207.40;104092;1277;107745;-70
2022/06/25 00:17:54;;;;;;;0.40;0.10;;;;;;;21.40;48.95;100208.05;103984;1277;139471;-70
2022/06/25 00:20:22;;;;;;;0.40;0.10;;;;;;;21.37;49.10;100212.30;104089;1278;95653;-71
2022/06/25 00:22:50;;;;;;;0.40;0.10;;;;;;;21.30;49.51;100205.59;104082;1277;109613;-71
2022/06/25 00:25:18;;;;;;;0.40;0.10;;;;;;;21.28;49.62;100207.47;103955;1278;138803;-71
2022/06/25 00:27:45;;;;;;;0.40;0.10;;;;;;;21.26;49.28;100204.45;104128;1277;107398;-70
2022/06/25 00:30:14;;;;;;;0.40;0.10;;;;;;;21.25;49.63;100207.41;104054;1277;138299;-70
2022/06/25 00:32:44;;;;;;;0.40;0.10;;;;;;;21.18;49.74;100201.19;103984;1279;95131;-70
2022/06/25 00:35:12;;;;;;;0.40;0.10;;;;;;;21.15;50.08;100200.89;104001;1277;138784;-71
2022/06/25 00:37:40;;;;;;;0.40;0.10;;;;;;;21.07;49.90;100201.65;104130;1278;99925;-71
2022/06/25 00:40:09;;;;;;;0.40;0.10;;;;;;;21.05;50.41;100199.82;104096;1277;108069;-71
2022/06/25 00:42:43;;;;;;;0.40;0.10;;;;;;;21.01;50.27;100198.65;103991;1277;138305;-71
2022/06/25 00:45:11;;;;;;;0.40;0.10;;;;;;;20.95;50.18;100199.43;104108;1278;95276;-69
2022/06/25 00:47:39;;;;;;;0.40;0.10;;;;;;;20.95;50.31;100197.69;104018;1277;138295;-71
2022/06/25 00:50:08;;;;;;;0.40;0.10;;;;;;;20.93;50.31;100198.67;104073;1280;98410;-70
2022/06/25 00:52:42;;;;;;;0.40;0.10;;;;;;;20.96;50.36;100196.51;104072;1277;109307;-70
2022/06/25 00:55:19;;;;;;;0.40;0.10;;;;;;;20.93;50.76;100199.94;104020;1277;138600;-70
2022/06/25 00:57:50;;;;;;;0.40;0.10;;;;;;;20.89;50.85;100196.98;104217;1277;95327;-70
2022/06/25 01:00:18;;;;;;;0.40;0.10;;;;;;;20.89;51.08;100195.05;104226;1277;138462;-70
2022/06/25 01:02:47;;;;;;;0.40;0.10;;;;;;;20.84;50.75;100196.40;104119;1277;97830;-71
2022/06/25 01:05:16;;;;;;;0.40;0.10;;;;;;;20.84;50.95;100197.71;104053;1277;138262;-71
2022/06/25 01:07:48;;;;;;;0.40;0.10;;;;;;;20.81;51.04;100200.80;104036;1278;95254;-71
2022/06/25 01:10:17;;;;;;;0.40;0.10;;;;;;;20.82;51.39;100198.41;104047;1280;95649;-70
2022/06/25 01:12:45;;;;;;;0.40;0.10;;;;;;;20.79;51.23;100203.29;104011;1280;139279;-70
2022/06/25 01:15:16;;;;;;;0.40;0.10;;;;;;;20.74;51.05;100204.44;104163;1277;98414;-71
2022/06/25 01:17:47;;;;;;;0.40;0.10;;;;;;;20.74;51.47;100198.45;103977;1280;138397;-71
2022/06/25 01:20:18;;;;;;;0.40;0.10;;;;;;;20.73;51.23;100199.63;104268;1277;95196;-71
2022/06/25 01:22:47;;;;;;;0.40;0.10;;;;;;;20.68;51.29;100202.84;104146;1277;95395;-70
2022/06/25 01:25:16;;;;;;;0.40;0.10;;;;;;;20.65;51.34;100199.44;104020;1277;138289;-70
2022/06/25 01:27:45;;;;;;;0.40;0.10;;;;;;;20.61;51.41;100194.83;104176;1277;99375;-69
2022/06/25 01:30:14;;;;;;;0.40;0.10;;;;;;;20.61;51.84;100195.71;103950;1278;138402;-70
2022/06/25 01:32:42;;;;;;;0.40;0.10;;;;;;;20.55;51.79;100194.73;104082;1277;95368;-70
2022/06/25 01:35:10;;;;;;;0.40;0.10;;;;;;;20.50;52.02;100193.98;103999;1277;138361;-70
2022/06/25 01:37:38;;;;;;;0.40;0.10;;;;;;;20.50;52.34;100193.63;104114;1277;108543;-70
2022/06/25 01:40:07;;;;;;;0.40;0.10;;;;;;;20.43;51.89;100190.86;104063;1280;99285;-71
2022/06/25 01:45:23;;;;;;;0.40;0.10;;;;;;;20.47;51.92;100193.27;104065;1277;95218;-71
2022/06/25 01:47:52;;;;;;;0.40;0.10;;;;;;;20.48;51.90;100189.61;104000;1277;138163;-70
2022/06/25 01:50:20;;;;;;;0.40;0.10;;;;;;;20.45;51.54;100184.95;104144;1277;109522;-71
2022/06/25 01:52:48;;;;;;;0.40;0.10;;;;;;;20.42;51.79;100193.10;104090;1278;100088;-71
2022/06/25 01:55:18;;;;;;;0.40;0.10;;;;;;;20.41;52.14;100197.17;104024;1278;138176;-72
2022/06/25 01:57:48;;;;;;;0.40;0.10;;;;;;;20.45;51.94;100202.27;104051;1280;95842;-71
2022/06/25 02:00:20;;;;;;;0.40;0.10;;;;;;;20.41;51.88;100207.96;104033;1278;138726;-72
2022/06/25 02:02:53;;;;;;;0.40;0.10;;;;;;;20.36;52.23;100205.10;104486;1277;109874;-71
2022/06/25 02:08:14;;;;;;;0.40;0.10;;;;;;;20.35;52.38;100212.70;104137;1278;109405;-71
2022/06/25 02:10:46;;;;;;;0.40;0.10;;;;;;;20.35;52.69;100207.63;104200;1278;95338;-72
2022/06/25 02:13:15;;;;;;;0.40;0.10;;;;;;;20.37;52.28;100213.09;104051;1277;139004;-70
2022/06/25 02:15:43;;;;;;;0.40;0.10;;;;;;;20.36;52.52;100211.89;104174;1278;109346;-71
2022/06/25 02:18:11;;;;;;;0.40;0.10;;;;;;;20.33;52.33;100210.12;104065;1277;138779;-71
2022/06/25 02:20:40;;;;;;;0.40;0.10;;;;;;;20.34;52.51;100212.98;104261;1277;108008;-71
2022/06/25 02:23:10;;;;;;;0.40;0.10;;;;;;;20.32;52.67;100207.33;104072;1277;138917;-69
2022/06/25 02:25:38;;;;;;;0.40;0.10;;;;;;;20.27;52.57;100207.55;104510;1277;97258;-69
2022/06/25 02:28:15;;;;;;;0.40;0.10;;;;;;;20.20;52.75;100204.36;104126;1277;109995;-70
2022/06/25 02:30:44;;;;;;;0.40;0.10;;;;;;;20.21;52.89;100209.36;104216;1280;138278;-70
2022/06/25 02:33:14;;;;;;;0.40;0.10;;;;;;;20.18;52.64;100213.39;104192;1277;108855;-70
2022/06/25 02:35:44;;;;;;;0.40;0.10;;;;;;;20.14;52.93;100215.23;104102;1277;138350;-70
2022/06/25 02:38:14;;;;;;;0.40;0.10;;;;;;;20.15;52.93;100212.27;104220;1277;95627;-70
2022/06/25 02:40:43;;;;;;;0.40;0.10;;;;;;;20.14;52.97;100211.30;104249;1277;109866;-70
2022/06/25 02:43:12;;;;;;;0.40;0.10;;;;;;;20.10;53.02;100215.55;104155;1277;138441;-70
2022/06/25 02:45:43;;;;;;;0.40;0.10;;;;;;;20.08;53.20;100215.30;104194;1277;108769;-71
2022/06/25 02:48:12;;;;;;;0.40;0.10;;;;;;;20.10;53.22;100210.67;104526;1277;138612;-71
2022/06/25 02:50:41;;;;;;;0.40;0.10;;;;;;;20.10;53.08;100211.95;104181;1278;95571;-71
2022/06/25 02:53:10;;;;;;;0.40;0.10;;;;;;;20.08;53.33;100211.72;104037;1277;139064;-70
2022/06/25 03:01:23;;;;;;;0.40;0.10;;;;;;;20.17;53.06;100211.05;104191;1277;95548;-71
2022/06/25 03:03:53;;;;;;;0.40;0.10;;;;;;;20.20;53.24;100205.67;104208;1277;95469;-71
2022/06/25 03:06:23;;;;;;;0.40;0.10;;;;;;;20.21;53.05;100207.72;104570;1279;138069;-71
2022/06/25 03:08:51;;;;;;;0.40;0.10;;;;;;;20.20;53.09;100207.27;104236;1280;98621;-71
2022/06/25 03:11:19;;;;;;;0.40;0.10;;;;;;;20.21;53.46;100209.34;104101;1277;138800;-70
2022/06/25 03:13:48;;;;;;;0.40;0.10;;;;;;;20.24;53.18;100207.37;104052;1280;95611;-70
2022/06/25 03:16:16;;;;;;;0.40;0.10;;;;;;;20.30;53.21;100208.94;104175;1277;96574;-70
2022/06/25 03:18:44;;;;;;;0.40;0.10;;;;;;;20.33;53.38;100206.55;104034;1280;138099;-71
2022/06/25 03:21:30;;;;;;;0.40;0.10;;;;;;;20.33;53.13;100208.70;104220;1277;99595;-69
2022/06/25 03:24:04;;;;;;;0.40;0.10;;;;;;;20.34;53.12;100207.00;103967;1280;138529;-73
2022/06/25 03:26:32;;;;;;;0.40;0.10;;;;;;;20.38;53.07;100210.30;104272;1277;95227;-71
2022/06/25 03:29:02;;;;;;;0.40;0.10;;;;;;;20.40;53.05;100213.41;104083;1277;138581;-71
2022/06/25 03:31:31;;;;;;;0.40;0.10;;;;;;;20.40;53.59;100211.98;104244;1277;109840;-71
2022/06/25 03:34:02;;;;;;;0.40;0.10;;;;;;;20.46;53.32;100218.05;104226;1278;99699;-70
2022/06/25 03:36:35;;;;;;;0.40;0.10;;;;;;;20.50;53.28;100216.17;104060;1280;137719;-71
2022/06/25 03:39:04;;;;;;;0.40;0.10;;;;;;;20.50;53.06;100221.91;104181;1277;95688;-72
2022/06/25 03:41:38;;;;;;;0.40;0.10;;;;;;;20.53;53.12;100220.98;104092;1280;138237;-71
2022/06/25 03:44:21;;;;;;;0.40;0.10;;;;;;;20.59;53.04;100224.73;104199;1277;110426;-72
2022/06/25 03:46:53;;;;;;;0.40;0.10;;;;;;;20.62;53.04;100224.31;104151;1277;99511;-71
2022/06/25 03:49:21;;;;;;;0.40;0.10;;;;;;;20.63;52.84;100225.68;104159;1278;106894;-72
2022/06/25 03:51:55;;;;;;;0.40;0.10;;;;;;;20.65;52.82;100223.55;104222;1277;95241;-71
2022/06/25 03:54:24;;;;;;;0.40;0.10;;;;;;;20.69;52.86;100227.65;104186;1277;138081;-70
2022/06/25 03:56:53;;;;;;;0.40;0.10;;;;;;;20.70;52.93;100231.73;104207;1277;110630;-70
2022/06/25 03:59:23;;;;;;;0.40;0.10;;;;;;;20.75;52.94;100231.61;104017;1277;138670;-71
2022/06/25 04:01:56;;;;;;;0.40;0.10;;;;;;;20.83;53.05;100236.80;104174;1277;108851;-70
2022/06/25 04:04:27;;;;;;;0.40;0.10;;;;;;;20.87;53.22;100237.94;104163;1280;95280;-71
2022/06/25 04:06:55;;;;;;;0.40;0.10;;;;;;;20.90;53.29;100241.34;104066;1277;138390;-70
2022/06/25 04:09:23;;;;;;;0.40;0.10;;;;;;;20.96;52.83;100240.69;104166;1277;109791;-71
2022/06/25 04:11:51;;;;;;;0.40;0.10;;;;;;;21.05;52.95;100240.26;104086;1277;138713;-72
2022/06/25 04:14:18;;;;;;;0.40;0.10;;;;;;;21.14;52.63;100239.02;104257;1277;108952;-69
2022/06/25 04:16:47;;;;;;;0.40;0.10;;;;;;;21.22;53.05;100243.19;104182;1277;95489;-71
2022/06/25 04:19:15;;;;;;;0.40;0.10;;;;;;;21.29;52.96;100243.06;104023;1277;137868;-70
2022/06/25 04:21:47;;;;;;;0.40;0.10;;;;;;;21.31;52.24;100245.41;104199;1278;110098;-70
2022/06/25 04:24:15;;;;;;;0.40;0.10;;;;;;;21.35;51.84;100249.23;104065;1277;138209;-70
2022/06/25 04:26:44;;;;;;;0.40;0.10;;;;;;;21.40;51.69;100250.91;104065;1277;110243;-71
2022/06/25 04:29:12;;;;;;;0.40;0.10;;;;;;;21.44;51.80;100247.91;103961;1279;138879;-70
2022/06/25 04:31:52;;;;;;;0.40;0.10;;;;;;;21.53;52.49;100250.80;104124;1277;95260;-70
2022/06/25 04:34:39;;;;;;;0.40;0.10;;;;;;;21.59;51.57;100249.47;104156;1277;108293;-71
2022/06/25 04:37:07;;;;;;;0.40;0.10;;;;;;;21.69;51.38;100244.59;103935;1280;138246;-71
2022/06/25 04:39:35;;;;;;;0.40;0.10;;;;;;;21.78;50.61;100245.56;104165;1277;108957;-70
2022/06/25 04:42:03;;;;;;;0.40;0.10;;;;;;;21.87;51.36;100246.45;103977;1278;138242;-70
2022/06/25 04:44:31;;;;;;;0.40;0.10;;;;;;;21.93;50.64;100247.16;104073;1277;95338;-70
2022/06/25 04:46:59;;;;;;;0.40;0.10;;;;;;;21.99;49.79;100247.52;103983;1278;138211;-71
2022/06/25 04:49:37;;;;;;;0.40;0.10;;;;;;;22.10;49.64;100251.41;104129;1277;99391;-71
2022/06/25 04:52:06;;;;;;;0.40;0.10;;;;;;;22.17;49.70;100249.21;104210;1277;109008;-70
2022/06/25 04:54:34;;;;;;;0.40;0.10;;;;;;;22.26;49.43;100250.80;104015;1280;138531;-70
2022/06/25 04:57:08;;;;;;;0.40;0.10;;;;;;;22.33;49.23;100253.13;104120;1277;95223;-70
2022/06/25 04:59:43;;;;;;;0.40;0.10;;;;;;;22.41;48.74;100256.67;103966;1278;138811;-70
2022/06/25 05:02:15;;;;;;;0.40;0.10;;;;;;;22.50;48.81;100260.63;104084;1277;99366;-71
2022/06/25 05:04:48;;;;;;;0.40;0.10;;;;;;;22.60;48.35;100260.81;104399;1277;108807;-71
2022/06/25 05:07:17;;;;;;;0.40;0.10;;;;;;;22.68;48.45;100263.79;103924;1277;138255;-70
2022/06/25 05:09:45;;;;;;;0.40;0.10;;;;;;;22.78;49.08;100261.90;104067;1278;95209;-70
2022/06/25 05:13:11;;;;;;;0.40;0.10;;;;;;;22.90;48.72;100263.83;104219;1277;138654;-70
2022/06/25 05:15:02;;;;;;;0.40;0.10;;;;;;;23.04;48.66;100263.06;104124;1277;99405;-70
2022/06/25 05:17:31;;;;;;;0.40;0.10;;;;;;;23.16;48.35;100267.02;103942;1277;138413;-70
2022/06/25 05:20:00;;;;;;;0.40;0.10;;;;;;;23.30;48.35;100265.72;103791;1280;265280;-70
2022/06/25 05:22:28;;;;;;;0.40;0.10;;;;;;;23.41;47.98;100271.35;104212;1277;95330;-70
2022/06/25 05:24:56;;;;;;;0.40;0.10;;;;;;;23.56;48.15;100272.70;103870;1280;138097;-70
2022/06/25 05:27:24;;;;;;;0.40;0.10;;;;;;;23.65;47.23;100270.98;104105;1277;99465;-71
2022/06/25 05:29:52;;;;;;;0.40;0.10;;;;;;;23.75;46.00;100271.64;103985;1277;138493;-71
2022/06/25 05:32:20;;;;;;;0.40;0.10;;;;;;;23.78;46.43;100272.48;104087;1278;96421;-71
2022/06/25 05:34:48;;;;;;;0.40;0.00;;;;;;;23.90;46.82;100271.09;104056;1279;95195;-71
2022/06/25 05:37:17;;;;;;;0.40;0.00;;;;;;;24.01;46.76;100268.02;104060;1279;138855;-70
2022/06/25 05:39:45;;;;;;;0.40;0.10;;;;;;;24.08;46.40;100268.21;104121;1277;100781;-71
2022/06/25 05:42:12;;;;;;;0.40;0.10;;;;;;;24.16;46.63;100266.70;104022;1277;138308;-70
2022/06/25 05:44:40;;;;;;;0.40;0.00;;;;;;;24.28;46.27;100268.08;104193;1277;95833;-71
2022/06/25 05:47:09;;;;;;;0.40;0.00;;;;;;;24.34;45.83;100265.17;104050;1274;138243;-70
2022/06/25 05:49:37;;;;;;;0.40;0.00;;;;;;;24.49;45.99;100268.05;104155;1277;109744;-70
2022/06/25 05:52:05;;;;;;;0.40;0.00;;;;;;;24.56;44.75;100268.55;104169;1277;99435;-71
2022/06/25 05:54:33;;;;;;;0.40;0.00;;;;;;;24.61;44.75;100265.98;103999;1277;138214;-72
2022/06/25 05:57:01;;;;;;;0.40;0.00;;;;;;;24.68;43.72;100265.69;104185;1277;95640;-71
2022/06/25 05:59:29;;;;;;;0.40;0.00;;;;;;;24.73;44.15;100265.14;103974;1277;141645;-70
2022/06/25 06:01:57;;;;;;;0.40;0.00;;;;;;;24.75;43.27;100265.15;104182;1277;108630;-70
2022/06/25 06:04:25;;;;;;;0.40;0.00;;;;;;;24.81;43.26;100262.63;104165;1277;98517;-71
2022/06/25 06:06:52;;;;;;;0.40;0.00;;;;;;;24.85;43.61;100264.38;104020;1277;138723;-71
2022/06/25 06:09:20;;;;;;;0.40;0.00;;;;;;;24.93;43.06;100268.09;104079;1277;95030;-73
2022/06/25 06:11:48;;;;;;;0.40;0.00;;;;;;;24.92;42.11;100272.60;104033;1277;138761;-70
2022/06/25 06:14:16;;;;;;;0.40;0.00;;;;;;;24.92;42.84;100271.09;104118;1277;110424;-70
2022/06/25 06:16:44;;;;;;;0.40;0.00;;;;;;;24.95;42.48;100274.96;104149;1277;99485;-70
2022/06/25 06:19:12;;;;;;;0.40;0.00;;;;;;;24.96;41.81;100272.21;103999;1279;139042;-71
2022/06/25 06:21:40;;;;;;;0.40;0.10;;;;;;;25.01;42.62;100268.28;104094;1279;95241;-70
2022/06/25 06:24:08;;;;;;;0.40;0.00;;;;;;;25.11;43.09;100266.31;104044;1279;139391;-70
2022/06/25 06:26:37;;;;;;;0.40;0.00;;;;;;;25.22;42.93;100269.33;104078;1279;109650;-69
2022/06/25 06:29:05;;;;;;;0.40;0.10;;;;;;;25.30;42.58;100265.48;104049;1279;138447;-70
2022/06/25 06:31:33;;;;;;;0.40;0.00;;;;;;;25.36;42.69;100266.98;104106;1279;108804;-70
2022/06/25 06:34:01;;;;;;;0.40;0.00;;;;;;;25.43;41.89;100269.41;104103;1279;95241;-69
2022/06/25 06:36:29;;;;;;;0.40;0.00;;;;;;;25.47;41.66;100269.48;104096;1279;139641;-70
2022/06/25 06:38:58;;;;;;;0.40;0.00;;;;;;;25.51;41.03;100270.36;104232;1279;110174;-70
2022/06/25 06:41:27;;;;;;;0.40;0.00;;;;;;;25.58;41.01;100268.64;104085;1279;138674;-70
2022/06/25 06:43:55;;;;;;;0.40;0.00;;;;;;;25.64;40.76;100269.16;104083;1279;109056;-70
2022/06/25 06:46:24;;;;;;;0.40;0.00;;;;;;;25.70;41.06;100268.80;104265;1279;95642;-70
2022/06/25 06:48:52;;;;;;;0.40;0.00;;;;;;;25.79;41.11;100272.11;104133;1279;138260;-71
2022/06/25 06:51:20;;;;;;;0.40;0.00;;;;;;;25.90;40.75;100269.35;104197;1279;109717;-70
2022/06/25 06:53:47;;;;;;;0.40;0.00;;;;;;;25.98;39.66;100268.07;104088;1279;138417;-70
2022/06/25 06:56:15;;;;;;;0.40;0.00;;;;;;;26.02;39.37;100268.77;104081;1279;109320;-69
2022/06/25 06:58:43;;;;;;;0.40;0.10;;;;;;;26.07;39.27;100266.55;104133;1278;95227;-69
2022/06/25 07:01:11;;;;;;;0.40;0.00;;;;;;;26.13;39.35;100267.21;104048;1280;137862;-70
2022/06/25 07:03:39;;;;;;;0.40;0.00;;;;;;;26.20;39.22;100265.48;104177;1279;108707;-70
2022/06/25 07:06:07;;;;;;;0.40;0.00;;;;;;;26.28;39.55;100268.20;104095;1277;141749;-70
2022/06/25 07:08:35;;;;;;;0.40;0.00;;;;;;;26.36;39.49;100268.64;104132;1279;108703;-70
2022/06/25 07:11:28;;;;;;;0.40;0.00;;;;;;;26.43;39.02;100271.67;104059;1279;138445;-71
2022/06/25 07:13:53;;;;;;;0.40;0.00;;;;;;;26.54;39.16;100270.98;104115;1279;95715;-70
2022/06/25 07:16:22;;;;;;;0.40;0.00;;;;;;;26.59;37.81;100275.48;104165;1279;110119;-71
2022/06/25 07:18:51;;;;;;;0.40;0.00;;;;;;;26.65;38.66;100273.05;104155;1279;138445;-71
2022/06/25 07:21:19;;;;;;;0.40;0.00;;;;;;;26.75;38.65;100271.45;104204;1279;108835;-71
2022/06/25 07:23:47;;;;;;;0.40;0.00;;;;;;;26.86;39.28;100270.73;104093;1279;138780;-70
2022/06/25 07:26:15;;;;;;;0.40;0.00;;;;;;;26.90;36.12;100274.48;104174;1279;95328;-70
2022/06/25 07:28:43;;;;;;;0.40;0.00;;;;;;;26.93;35.61;100270.59;104159;1278;109707;-71
2022/06/25 07:31:11;;;;;;;0.40;0.00;;;;;;;26.98;35.82;100270.08;104024;1279;138128;-71
2022/06/25 07:33:38;;;;;;;0.40;0.00;;;;;;;27.07;35.74;100272.05;104179;1279;107705;-71
2022/06/25 07:36:07;;;;;;;0.40;0.00;;;;;;;27.22;35.77;100277.05;104050;1279;138538;-70
2022/06/25 07:38:35;;;;;;;0.40;0.00;;;;;;;27.30;34.90;100275.66;104153;1279;95172;-71
2022/06/25 07:41:03;;;;;;;0.40;0.00;;;;;;;27.38;34.83;100277.44;104019;1279;138861;-71
2022/06/25 07:43:32;;;;;;;0.40;0.00;;;;;;;27.46;35.75;100281.07;104173;1279;99887;-70
2022/06/25 07:46:00;;;;;;;0.40;0.00;;;;;;;27.53;35.07;100272.00;104117;1279;108776;-70
2022/06/25 07:48:28;;;;;;;0.40;0.00;;;;;;;27.58;34.36;100277.33;104032;1280;138474;-70
2022/06/25 07:53:42;;;;;;;0.40;0.00;;;;;;;27.54;32.84;100272.82;104096;1279;138258;-71
2022/06/25 07:56:11;;;;;;;0.40;0.00;;;;;;;27.52;31.97;100274.06;104207;1279;98935;-71
2022/06/25 07:58:39;;;;;;;0.40;0.00;;;;;;;27.50;32.14;100267.85;104135;1279;109585;-71
2022/06/25 08:01:07;;;;;;;0.40;0.00;;;;;;;27.57;33.16;100259.03;103972;1279;138414;-71
2022/06/25 08:03:35;;;;;;;0.40;0.00;;;;;;;27.71;33.00;100265.20;104151;1279;95219;-70
2022/06/25 08:06:03;;;;;;;0.40;0.00;;;;;;;27.84;32.72;100265.02;104009;1279;138186;-71
2022/06/25 08:08:31;;;;;;;0.40;0.00;;;;;;;27.92;32.25;100266.77;104165;1279;99333;-72
2022/06/25 08:10:59;;;;;;;0.40;0.00;;;;;;;28.03;33.11;100256.78;103967;1279;138239;-73
2022/06/25 08:13:27;;;;;;;0.40;0.00;;;;;;;28.13;31.94;100257.98;104168;1279;95542;-73
2022/06/25 08:15:55;;;;;;;0.40;0.00;;;;;;;28.20;32.41;100255.19;104168;1279;95631;-70
2022/06/25 08:18:23;;;;;;;0.40;0.00;;;;;;;28.31;32.34;100259.23;104037;1279;138285;-71
2022/06/25 08:20:51;;;;;;;0.40;0.00;;;;;;;28.34;31.59;100262.13;104131;1279;98426;-71
2022/06/25 08:23:19;;;;;;;0.40;0.00;;;;;;;28.36;32.13;100260.26;103954;1277;138307;-71
2022/06/25 08:25:47;;;;;;;0.40;0.00;;;;;;;28.42;31.80;100260.94;104177;1277;95196;-70
2022/06/25 08:28:15;;;;;;;0.40;0.00;;;;;;;28.48;31.72;100258.35;104221;1277;95115;-71
2022/06/25 08:30:43;;;;;;;0.40;0.00;;;;;;;28.59;31.69;100255.57;104056;1277;139699;-70
2022/06/25 08:33:11;;;;;;;0.40;0.00;;;;;;;28.60;31.99;100255.98;104161;1277;99922;-71
2022/06/25 08:35:39;;;;;;;0.40;0.00;;;;;;;28.77;32.32;100259.48;104092;1277;138423;-70
2022/06/25 08:38:07;;;;;;;0.40;0.00;;;;;;;28.99;30.81;100259.56;104122;1277;95540;-71
2022/06/25 08:40:37;;;;;;;0.40;0.00;;;;;;;29.13;30.24;100262.68;104123;1277;95169;-72
2022/06/25 08:43:11;;;;;;;0.40;0.00;;;;;;;29.28;30.64;100263.13;104044;1277;138191;-71
2022/06/25 08:45:39;;;;;;;0.40;0.00;;;;;;;29.40;30.25;100258.77;104195;1277;99108;-71
2022/06/25 08:48:15;;;;;;;0.40;0.00;;;;;;;29.47;30.09;100261.03;104083;1277;138689;-72
2022/06/25 08:50:44;;;;;;;0.40;0.00;;;;;;;29.59;28.90;100260.56;104195;1277;95745;-72
2022/06/25 08:53:13;;;;;;;0.40;0.00;;;;;;;29.68;28.69;100265.02;104115;1277;138287;-70
2022/06/25 08:55:44;;;;;;;0.40;0.00;;;;;;;29.70;28.02;100263.30;104155;1277;109897;-72
2022/06/25 08:58:14;;;;;;;0.40;0.00;;;;;;;29.84;28.73;100262.38;104148;1277;99574;-71
2022/06/25 09:00:45;;;;;;;0.40;0.00;;;;;;;29.91;28.22;100265.11;104121;1277;138827;-73
2022/06/25 09:03:13;;;;;;;0.40;0.00;;;;;;;29.94;28.56;100261.67;104289;1277;95252;-73
2022/06/25 09:05:43;;;;;;;0.40;0.00;;;;;;;30.12;28.49;100262.06;104135;1277;138701;-73
2022/06/25 09:08:13;;;;;;;0.40;0.00;;;;;;;30.17;27.70;100268.77;104196;1277;109864;-72
2022/06/25 09:10:45;;;;;;;0.40;0.00;;;;;;;30.07;27.04;100265.16;104223;1277;99511;-72
2022/06/25 09:13:13;;;;;;;0.40;0.00;;;;;;;30.11;28.17;100261.10;104030;1277;137918;-72
2022/06/25 09:15:45;;;;;;;0.40;0.00;;;;;;;30.26;27.80;100260.27;104238;1277;95218;-72
2022/06/25 09:18:15;;;;;;;0.40;0.00;;;;;;;30.42;28.19;100257.73;104121;1277;138771;-72
2022/06/25 09:21:01;;;;;;;0.40;0.00;;;;;;;30.74;27.36;100261.20;104274;1277;109896;-70
2022/06/25 09:23:31;;;;;;;0.40;0.00;;;;;;;31.07;25.66;100264.03;104117;1277;138935;-72
2022/06/25 09:26:11;;;;;;;0.40;0.00;;;;;;;31.67;24.99;100265.72;104194;1277;108983;-73
2022/06/25 09:28:42;;;;;;;0.40;0.00;;;;;;;32.36;23.95;100253.23;104168;1277;96131;-71
2022/06/25 09:31:10;;;;;;;0.40;0.00;;;;;;;33.04;23.73;100257.14;104253;1277;138757;-70
2022/06/25 09:33:40;;;;;;;0.40;0.00;;;;;;;33.81;23.95;100254.92;104196;1277;111331;-72
2022/06/25 09:36:09;;;;;;;0.40;0.00;;;;;;;34.62;22.84;100254.63;104255;1277;138660;-71
2022/06/25 09:38:48;;;;;;;0.40;0.00;;;;;;;35.31;21.36;100254.34;104165;1277;108165;-72
2022/06/25 09:41:16;;;;;;;0.40;0.00;;;;;;;35.84;21.04;100257.63;104114;1279;140215;-72
2022/06/25 09:43:47;;;;;;;0.40;0.00;;;;;;;36.19;19.91;100261.91;104209;1277;95234;-72
2022/06/25 09:46:16;;;;;;;0.40;0.00;;;;;;;36.66;20.48;100251.02;104294;1277;109834;-73
2022/06/25 09:48:45;;;;;;;0.40;0.00;;;;;;;37.27;20.32;100252.58;104168;1277;138622;-72
2022/06/25 09:51:23;;;;;;;0.40;0.00;;;;;;;37.65;19.58;100256.77;104264;1277;109288;-72
2022/06/25 09:54:00;;;;;;;0.40;0.00;;;;;;;38.18;20.15;100250.78;104102;1279;138241;-73
2022/06/25 09:56:32;;;;;;;0.40;0.00;;;;;;;38.80;19.09;100256.87;104225;1274;95336;-73
2022/06/25 09:59:00;;;;;;;0.40;0.00;;;;;;;38.83;17.87;100262.80;104061;1279;138353;-72
2022/06/25 10:01:31;;;;;;;0.40;0.00;;;;;;;38.78;18.43;100253.76;104254;1280;99485;-72
2022/06/25 10:04:04;;;;;;;0.40;0.00;;;;;;;39.02;18.10;100257.52;104481;1277;108865;-73
2022/06/25 10:06:38;;;;;;;0.40;0.00;;;;;;;39.03;18.20;100256.58;104104;1277;138481;-72
2022/06/25 10:09:07;;;;;;;0.40;0.00;;;;;;;38.92;17.79;100261.32;104171;1277;95456;-72
2022/06/25 10:11:37;;;;;;;0.40;0.00;;;;;;;39.00;17.83;100248.08;104249;1277;138321;-72
2022/06/25 10:14:05;;;;;;;0.40;0.00;;;;;;;39.16;17.47;100248.55;104169;1277;97053;-71
2022/06/25 10:16:33;;;;;;;0.40;0.00;;;;;;;39.20;18.12;100243.91;104196;1277;109345;-71
2022/06/25 10:19:03;;;;;;;0.40;0.00;;;;;;;39.57;17.96;100244.11;104099;1277;138339;-73
2022/06/25 10:21:31;;;;;;;0.40;0.00;;;;;;;39.96;18.32;100245.23;104228;1277;95224;-73
2022/06/25 10:24:04;;;;;;;0.40;0.00;;;;;;;40.33;17.64;100242.71;104142;1277;137964;-71
2022/06/25 10:26:34;;;;;;;0.40;0.00;;;;;;;40.38;17.09;100244.01;104262;1277;98611;-72
2022/06/25 10:29:22;;;;;;;0.40;0.00;;;;;;;40.67;17.37;100237.77;104255;1277;138783;-72
2022/06/25 10:31:50;;;;;;;0.40;0.00;;;;;;;40.80;16.86;100231.77;104202;1277;95280;-72
2022/06/25 10:34:18;;;;;;;0.40;0.00;;;;;;;40.71;16.26;100239.60;104200;1277;95156;-73
2022/06/25 10:36:48;;;;;;;0.40;0.00;;;;;;;40.59;16.55;100229.90;104033;1277;138633;-72
2022/06/25 10:39:36;;;;;;;0.40;0.00;;;;;;;40.72;17.17;100228.52;104145;1277;99650;-73
2022/06/25 10:45:03;;;;;;;0.40;0.00;;;;;;;41.47;16.42;100228.73;104187;1279;95166;-73
2022/06/25 10:47:41;;;;;;;0.40;0.00;;;;;;;41.08;16.13;100226.98;104171;1277;138119;-71
2022/06/25 10:50:21;;;;;;;0.40;0.00;;;;;;;40.79;16.34;100221.30;104244;1277;109153;-72
2022/06/25 10:53:02;;;;;;;0.40;0.00;;;;;;;40.87;16.16;100221.14;104189;1277;99511;-72
2022/06/25 10:55:38;;;;;;;0.40;0.00;;;;;;;40.81;16.15;100216.54;104143;1277;107768;-73
2022/06/25 10:58:12;;;;;;;0.40;0.00;;;;;;;41.25;16.73;100218.15;104193;1277;95674;-72
2022/06/25 11:00:48;;;;;;;0.40;0.00;;;;;;;41.57;16.48;100214.44;104094;1277;138111;-72
2022/06/25 11:03:36;;;;;;;0.40;0.00;;;;;;;41.68;16.46;100211.38;104194;1277;109676;-73
2022/06/25 11:06:33;;;;;;;0.40;0.00;;;;;;;41.47;16.95;100207.81;104126;1279;138271;-73
2022/06/25 11:09:06;;;;;;;0.40;0.00;;;;;;;40.24;17.18;100211.84;104187;1277;109355;-72
2022/06/25 11:11:35;;;;;;;0.40;0.00;;;;;;;39.44;18.29;100211.69;104168;1277;138534;-71
2022/06/25 11:14:13;;;;;;;0.40;0.00;;;;;;;38.48;18.20;100212.70;104426;1277;95528;-72
2022/06/25 11:16:40;;;;;;;0.40;0.00;;;;;;;37.67;19.77;100210.24;104131;1277;109750;-72
2022/06/25 11:19:09;;;;;;;0.40;0.00;;;;;;;37.18;19.47;100211.98;104151;1277;138205;-72
2022/06/25 11:21:42;;;;;;;0.40;0.00;;;;;;;36.36;19.61;100214.54;104363;1279;107043;-72
2022/06/25 11:24:14;;;;;;;0.40;0.00;;;;;;;35.90;21.00;100222.09;104239;1277;138237;-72
2022/06/25 11:29:47;;;;;;;0.40;0.00;;;;;;;35.23;21.49;100221.27;104116;1280;139103;-72
2022/06/25 11:32:20;;;;;;;0.40;0.00;;;;;;;34.72;20.89;100217.94;104328;1277;99505;-72
2022/06/25 11:34:59;;;;;;;0.40;0.00;;;;;;;34.31;21.70;100215.56;104214;1280;108865;-72
2022/06/25 11:37:29;;;;;;;0.40;0.00;;;;;;;33.99;21.75;100208.39;104441;1277;95373;-72
2022/06/25 11:39:58;;;;;;;0.40;0.00;;;;;;;33.87;23.17;100209.90;104166;1277;95652;-72
2022/06/25 11:42:26;;;;;;;0.40;0.00;;;;;;;33.82;22.77;100208.65;104116;1277;139079;-71
2022/06/25 11:44:56;;;;;;;0.40;0.00;;;;;;;33.34;22.99;100210.04;104296;1277;99457;-71